createdAt,value
2022-10-16T00:00:43.085Z,6.65
2022-10-16T00:05:44.691Z,8.00
2022-10-16T00:10:45.940Z,6.90
2022-10-16T00:15:47.338Z,12.40
2022-10-16T00:20:48.609Z,8.57
2022-10-16T00:25:57.078Z,10.33
2022-10-16T00:30:58.441Z,8.37
2022-10-16T00:36:00.260Z,7.10
2022-10-16T00:41:02.125Z,7.35
2022-10-16T00:46:05.062Z,5.97
2022-10-16T00:51:07.934Z,5.28
2022-10-16T00:56:09.210Z,9.18
2022-10-16T01:01:10.496Z,7.87
2022-10-16T01:11:46.998Z,5.30
2022-10-16T01:16:58.416Z,5.33
2022-10-16T01:22:00.810Z,7.03
2022-10-16T01:27:16.134Z,7.22
2022-10-16T01:32:21.161Z,6.90
2022-10-16T01:37:25.750Z,7.00
2022-10-16T01:42:31.143Z,7.80
2022-10-16T01:47:32.820Z,7.07
2022-10-16T01:52:36.644Z,4.97
2022-10-16T01:57:39.788Z,9.23
2022-10-16T02:02:42.608Z,6.72
2022-10-16T02:07:43.881Z,8.77
2022-10-16T02:12:53.395Z,5.10
2022-10-16T02:17:54.614Z,6.00
2022-10-16T02:22:57.302Z,6.72
2022-10-16T02:28:00.724Z,13.70
2022-10-16T02:33:02.833Z,14.85
2022-10-16T02:38:04.674Z,6.00
2022-10-16T02:43:06.273Z,9.20
2022-10-16T02:48:07.721Z,10.90
2022-10-16T02:53:08.974Z,11.07
2022-10-16T02:58:10.202Z,8.67
2022-10-16T03:03:11.417Z,8.97
2022-10-16T03:08:13.171Z,8.88
2022-10-16T03:13:14.371Z,13.85
2022-10-16T03:18:15.840Z,6.77
2022-10-16T03:23:17.051Z,7.50
2022-10-16T03:28:18.501Z,10.90
2022-10-16T03:33:19.802Z,9.80
2022-10-16T03:38:21.747Z,6.80
2022-10-16T03:43:22.985Z,4.80
2022-10-16T03:48:24.224Z,10.63
2022-10-16T03:53:25.543Z,10.87
2022-10-16T03:58:26.765Z,6.82
2022-10-16T04:03:28.174Z,7.60
2022-10-16T04:08:29.463Z,6.50
2022-10-16T04:13:30.758Z,7.03
2022-10-16T04:18:32.196Z,9.55
2022-10-16T04:23:33.524Z,6.53
2022-10-16T04:28:34.814Z,6.53
2022-10-16T04:33:36.122Z,7.00
2022-10-16T04:38:38.396Z,10.43
2022-10-16T04:43:39.626Z,8.37
2022-10-16T04:48:40.883Z,9.55
2022-10-16T04:53:42.189Z,7.43
2022-10-16T04:58:43.431Z,9.33
2022-10-16T05:03:44.826Z,6.25
2022-10-16T05:08:46.079Z,9.35
2022-10-16T05:13:49.890Z,11.37
2022-10-16T05:19:00.052Z,9.43
2022-10-16T05:24:11.449Z,5.72
2022-10-16T05:29:12.916Z,8.53
2022-10-16T05:34:14.205Z,5.13
2022-10-16T05:39:16.166Z,6.85
2022-10-16T05:44:17.406Z,8.27
2022-10-16T05:49:18.634Z,6.97
2022-10-16T05:54:19.874Z,7.72
2022-10-16T05:59:21.109Z,7.65
2022-10-16T06:04:22.338Z,9.53
2022-10-16T06:09:23.567Z,7.10
2022-10-16T06:14:24.930Z,6.38
2022-10-16T06:19:26.174Z,11.77
2022-10-16T06:24:27.487Z,12.98
2022-10-16T06:29:28.732Z,6.47
2022-10-16T06:34:30.025Z,8.70
2022-10-16T06:39:31.258Z,6.65
2022-10-16T06:44:32.505Z,6.15
2022-10-16T06:49:33.854Z,10.43
2022-10-16T06:54:42.146Z,6.10
2022-10-16T06:59:46.828Z,10.18
2022-10-16T07:04:48.352Z,12.73
2022-10-16T07:09:49.590Z,10.43
2022-10-16T07:14:53.061Z,9.88
2022-10-16T07:19:54.355Z,8.32
2022-10-16T07:24:55.669Z,11.57
2022-10-16T07:29:56.894Z,7.85
2022-10-16T07:34:58.148Z,6.78
2022-10-16T07:39:59.382Z,8.30
2022-10-16T07:45:00.620Z,10.10
2022-10-16T07:50:02.076Z,12.02
2022-10-16T07:55:03.959Z,9.57
2022-10-16T08:00:05.472Z,6.20
2022-10-16T08:05:07.193Z,6.38
2022-10-16T08:10:16.557Z,8.23
2022-10-16T08:15:18.019Z,5.07
2022-10-16T08:20:19.257Z,11.18
2022-10-16T08:25:20.778Z,6.72
2022-10-16T08:30:22.997Z,7.97
2022-10-16T08:35:24.511Z,6.50
2022-10-16T08:40:28.441Z,10.07
2022-10-16T08:45:44.779Z,6.03
2022-10-16T08:50:46.450Z,6.67
2022-10-16T08:55:50.379Z,10.50
2022-10-16T09:00:54.932Z,12.65
2022-10-16T09:05:59.817Z,8.13
2022-10-16T09:11:08.616Z,5.80
2022-10-16T09:16:20.531Z,8.40
2022-10-16T09:21:29.926Z,7.97
2022-10-16T09:26:31.169Z,11.90
2022-10-16T09:31:32.459Z,6.07
2022-10-16T09:36:40.413Z,6.77
2022-10-16T09:41:42.972Z,6.93
2022-10-16T09:46:44.210Z,12.20
2022-10-16T09:51:46.123Z,5.57
2022-10-16T09:56:52.511Z,8.97
2022-10-16T10:01:55.945Z,6.65
2022-10-16T10:06:57.968Z,6.75
2022-10-16T10:12:00.470Z,7.03
2022-10-16T10:17:07.510Z,10.93
2022-10-16T10:22:17.782Z,7.38
2022-10-16T10:27:19.482Z,6.53
2022-10-16T10:32:35.337Z,4.80
2022-10-16T10:37:43.045Z,8.93
2022-10-16T10:43:04.563Z,7.43
2022-10-16T10:48:05.850Z,5.30
2022-10-16T10:53:25.927Z,8.40
2022-10-16T10:58:36.468Z,6.15
2022-10-16T11:03:37.707Z,5.50
2022-10-16T11:08:42.063Z,8.27
2022-10-16T11:13:47.217Z,6.07
2022-10-16T11:19:04.851Z,5.30
2022-10-16T11:24:12.116Z,8.13
2022-10-16T11:29:16.499Z,9.95
2022-10-16T11:34:37.767Z,9.05
2022-10-16T11:39:40.329Z,6.67
2022-10-16T11:44:44.677Z,16.27
2022-10-16T11:49:46.756Z,14.60
2022-10-16T11:54:47.985Z,8.87
2022-10-16T11:59:56.176Z,9.70
2022-10-16T12:05:04.761Z,9.15
2022-10-16T12:10:27.808Z,6.23
2022-10-16T12:15:54.247Z,7.77
2022-10-16T12:21:00.858Z,9.55
2022-10-16T12:26:03.367Z,8.00
2022-10-16T12:31:06.405Z,15.17
2022-10-16T12:36:15.985Z,10.40
2022-10-16T12:41:26.208Z,10.18
2022-10-16T12:46:30.467Z,9.90
2022-10-16T12:51:31.710Z,8.55
2022-10-16T12:56:37.546Z,10.45
2022-10-16T13:01:49.699Z,7.77
2022-10-16T13:06:55.581Z,10.10
2022-10-16T13:12:05.561Z,9.00
2022-10-16T13:17:09.695Z,5.57
2022-10-16T13:22:16.760Z,8.83
2022-10-16T13:27:27.380Z,6.80
2022-10-16T13:32:29.673Z,5.57
2022-10-16T13:37:30.917Z,6.00
2022-10-16T13:42:32.250Z,7.78
2022-10-16T13:47:34.529Z,5.22
2022-10-16T13:52:35.802Z,6.13
2022-10-16T13:57:37.017Z,6.20
2022-10-16T14:02:40.076Z,7.13
2022-10-16T14:07:41.792Z,6.30
2022-10-16T14:12:43.211Z,7.40
2022-10-16T14:17:45.205Z,7.53
2022-10-16T14:22:47.550Z,8.57
2022-10-16T14:27:59.905Z,8.97
2022-10-16T14:33:02.614Z,7.30
2022-10-16T14:38:04.925Z,5.93
2022-10-16T14:43:06.557Z,7.10
2022-10-16T14:48:19.554Z,7.95
2022-10-16T14:53:21.329Z,10.23
2022-10-16T14:58:23.733Z,14.90
2022-10-16T15:03:25.117Z,6.80
2022-10-16T15:08:26.413Z,7.45
2022-10-16T15:13:27.660Z,8.18
2022-10-16T15:18:29.413Z,8.47
2022-10-16T15:23:30.725Z,10.23
2022-10-16T15:28:32.045Z,10.43
2022-10-16T15:33:38.786Z,10.23
2022-10-16T15:38:41.306Z,7.10
2022-10-16T15:43:42.640Z,12.10
2022-10-16T15:48:44.153Z,16.70
2022-10-16T15:53:47.206Z,11.20
2022-10-16T15:58:48.575Z,11.52
2022-10-16T16:03:53.267Z,10.13
2022-10-16T16:08:54.611Z,13.20
2022-10-16T16:13:56.278Z,8.68
2022-10-16T16:18:57.531Z,17.13
2022-10-16T16:23:58.825Z,20.93
2022-10-16T16:29:00.434Z,8.60
2022-10-16T16:34:02.222Z,10.57
2022-10-16T16:39:03.553Z,11.13
2022-10-16T16:44:06.253Z,18.70
2022-10-16T16:49:10.887Z,15.35
2022-10-16T16:54:13.717Z,16.90
2022-10-16T16:59:16.774Z,17.10
2022-10-16T17:04:18.259Z,14.63
2022-10-16T17:09:19.592Z,13.20
2022-10-16T17:14:20.870Z,11.77
2022-10-16T17:19:22.238Z,12.55
2022-10-16T17:24:23.627Z,18.10
2022-10-16T17:29:24.947Z,19.47
2022-10-16T17:34:26.241Z,16.30
2022-10-16T17:39:27.640Z,14.18
2022-10-16T17:44:28.899Z,22.25
2022-10-16T17:49:30.322Z,14.17
2022-10-16T17:54:31.658Z,9.18
2022-10-16T17:59:32.952Z,12.43
2022-10-16T18:04:34.291Z,20.67
2022-10-16T18:09:35.593Z,18.83
2022-10-16T18:14:36.870Z,11.27
2022-10-16T18:19:38.134Z,13.20
2022-10-16T18:24:39.367Z,10.67
2022-10-16T18:29:40.695Z,13.07
2022-10-16T18:34:41.953Z,14.57
2022-10-16T18:39:46.259Z,13.83
2022-10-16T18:44:49.146Z,15.73
2022-10-16T18:49:53.246Z,12.45
2022-10-16T18:54:58.055Z,17.07
2022-10-16T18:59:59.362Z,13.60
2022-10-16T19:05:03.885Z,15.90
2022-10-16T19:10:07.815Z,15.27
2022-10-16T19:15:09.367Z,8.90
2022-10-16T19:20:10.688Z,15.15
2022-10-16T19:25:11.938Z,16.75
2022-10-16T19:35:19.701Z,9.85
2022-10-16T19:40:21.016Z,11.18
2022-10-16T19:45:22.350Z,15.67
2022-10-16T19:50:23.935Z,18.13
2022-10-16T19:55:25.192Z,11.50
2022-10-16T20:00:26.431Z,13.10
2022-10-16T20:05:27.688Z,18.95
2022-10-16T20:10:28.967Z,18.02
2022-10-16T20:15:30.240Z,14.73
2022-10-16T20:20:31.478Z,13.80
2022-10-16T20:25:36.508Z,15.60
2022-10-16T20:30:39.122Z,13.57
2022-10-16T20:35:50.316Z,14.47
2022-10-16T20:40:51.642Z,15.25
2022-10-16T20:45:59.281Z,12.73
2022-10-16T20:51:00.607Z,12.47
2022-10-16T20:56:02.113Z,18.42
2022-10-16T21:01:07.402Z,16.35
2022-10-16T21:06:09.978Z,11.90
2022-10-16T21:11:16.305Z,14.80
2022-10-16T21:16:17.744Z,11.55
2022-10-16T21:21:21.163Z,12.93
2022-10-16T21:26:38.991Z,10.98
2022-10-16T21:31:41.171Z,12.73
2022-10-16T21:36:42.626Z,14.83
2022-10-16T21:41:44.814Z,19.70
2022-10-16T21:46:46.432Z,12.73
2022-10-16T21:51:49.118Z,14.90
2022-10-16T21:56:50.742Z,13.23
2022-10-16T22:01:55.227Z,13.90
2022-10-16T22:06:56.470Z,14.30
2022-10-16T22:11:57.795Z,16.55
2022-10-16T22:16:59.051Z,15.43
2022-10-16T22:22:02.211Z,11.20
2022-10-16T22:27:03.480Z,12.77
2022-10-16T22:32:04.821Z,10.10
2022-10-16T22:37:06.061Z,11.93
2022-10-16T22:42:07.359Z,14.48
2022-10-16T22:47:08.669Z,14.43
2022-10-16T22:52:10.167Z,20.60
2022-10-16T22:57:11.395Z,17.80
2022-10-16T23:02:12.636Z,14.63
2022-10-16T23:07:13.894Z,20.10
2022-10-16T23:12:15.115Z,13.43
2022-10-16T23:17:16.343Z,16.90
2022-10-16T23:22:17.640Z,16.97
2022-10-16T23:27:18.869Z,11.27
2022-10-16T23:32:20.128Z,13.37
2022-10-16T23:37:21.439Z,14.40
2022-10-16T23:42:22.679Z,12.07
2022-10-16T23:47:23.946Z,14.33
2022-10-16T23:52:25.220Z,13.30
2022-10-16T23:57:26.953Z,13.82
